Time;durP1;ratioP1;P1;durP2;ratioP2;P2;SDS_P1;SDS_P2;PMS_P1;PMS_P2;Temp;Humidity;BMP_temperature;BMP_pressure;BME280_temperature;BME280_humidity;BME280_pressure;Samples;Min_cycle;Max_cycle;Signal;HPM_P1;HPM_P2
2021/03/24 00:00:11;;;;;;;18.38;11.90;;;;;;;;;;5014166;28;20041;-69
2021/03/24 00:03:16;;;;;;;20.55;11.82;;;;;;;;;;5013978;28;20057;-69
2021/03/24 00:06:21;;;;;;;14.55;9.88;;;;;;;;;;5013768;28;20053;-69
2021/03/24 00:09:26;;;;;;;21.58;11.15;;;;;;;;;;5014472;28;20042;-69
2021/03/24 00:12:30;;;;;;;18.30;11.10;;;;;;;;;;5014381;28;20040;-69
2021/03/24 00:15:35;;;;;;;17.75;10.30;;;;;;;;;;5013789;28;20385;-69
2021/03/24 00:18:39;;;;;;;19.33;11.40;;;;;;;;;;5014251;28;20044;-69
2021/03/24 00:21:44;;;;;;;22.90;11.02;;;;;;;;;;5013725;28;20048;-69
2021/03/24 00:24:48;;;;;;;19.38;11.48;;;;;;;;;;5013562;28;20065;-69
2021/03/24 00:28:01;;;;;;;22.15;10.90;;;;;;;;;;5013921;28;20045;-69
2021/03/24 00:31:05;;;;;;;18.00;11.13;;;;;;;;;;5014139;28;20057;-69
2021/03/24 00:34:10;;;;;;;17.70;10.88;;;;;;;;;;5001921;28;20133;-69
2021/03/24 00:37:16;;;;;;;17.95;10.48;;;;;;;;;;5001891;28;20056;-69
2021/03/24 00:40:22;;;;;;;20.02;9.93;;;;;;;;;;5014000;28;20041;-69
2021/03/24 00:43:27;;;;;;;18.60;10.85;;;;;;;;;;5013798;28;20042;-69
2021/03/24 00:46:32;;;;;;;17.98;9.93;;;;;;;;;;5013617;28;20190;-69
2021/03/24 00:49:36;;;;;;;16.65;10.13;;;;;;;;;;5013950;28;20530;-69
2021/03/24 00:52:41;;;;;;;20.00;9.85;;;;;;;;;;5001314;28;20048;-70
2021/03/24 00:55:46;;;;;;;17.70;8.95;;;;;;;;;;5013415;28;20057;-69
2021/03/24 00:58:50;;;;;;;15.40;8.57;;;;;;;;;;5013276;28;20474;-69
2021/03/24 01:01:54;;;;;;;18.35;9.70;;;;;;;;;;5013109;28;20034;-70
2021/03/24 01:05:01;;;;;;;17.45;9.27;;;;;;;;;;5013151;28;20657;-69
2021/03/24 01:08:11;;;;;;;16.92;9.13;;;;;;;;;;5013344;28;20046;-69
2021/03/24 01:11:15;;;;;;;17.05;9.48;;;;;;;;;;5014287;28;20049;-69
2021/03/24 01:14:19;;;;;;;16.08;9.35;;;;;;;;;;5013062;28;20514;-69
2021/03/24 01:17:24;;;;;;;16.50;8.75;;;;;;;;;;5012974;28;20042;-69
2021/03/24 01:20:30;;;;;;;17.00;9.38;;;;;;;;;;5013030;28;20497;-69
2021/03/24 01:23:34;;;;;;;17.42;9.65;;;;;;;;;;5012633;28;20117;-69
2021/03/24 01:26:38;;;;;;;16.63;9.10;;;;;;;;;;5012822;28;20060;-69
2021/03/24 01:29:42;;;;;;;17.48;9.93;;;;;;;;;;5012738;28;20037;-69
2021/03/24 01:32:47;;;;;;;19.27;9.80;;;;;;;;;;5012613;28;20030;-69
2021/03/24 01:35:52;;;;;;;16.10;10.10;;;;;;;;;;5011882;28;20049;-69
2021/03/24 01:38:57;;;;;;;17.63;9.82;;;;;;;;;;5012586;28;20036;-69
2021/03/24 01:42:01;;;;;;;18.52;9.15;;;;;;;;;;5012387;28;20397;-70
2021/03/24 01:45:14;;;;;;;19.90;9.70;;;;;;;;;;5012530;28;20053;-70
2021/03/24 01:48:20;;;;;;;19.15;9.93;;;;;;;;;;5000530;28;20049;-69
2021/03/24 01:51:30;;;;;;;19.67;9.27;;;;;;;;;;5012564;28;20062;-69
2021/03/24 01:54:40;;;;;;;14.70;8.70;;;;;;;;;;5012264;28;20041;-69
2021/03/24 01:57:45;;;;;;;15.25;8.90;;;;;;;;;;5012319;28;20084;-69
2021/03/24 02:00:51;;;;;;;18.48;9.32;;;;;;;;;;5012354;28;20038;-69
2021/03/24 02:03:56;;;;;;;15.25;8.85;;;;;;;;;;5011943;28;20486;-69
2021/03/24 02:07:13;;;;;;;13.73;8.48;;;;;;;;;;5012166;28;20054;-69
2021/03/24 02:10:25;;;;;;;22.27;8.45;;;;;;;;;;5012284;28;20050;-69
2021/03/24 02:13:34;;;;;;;15.63;8.40;;;;;;;;;;5011844;28;20042;-69
2021/03/24 02:16:44;;;;;;;17.17;7.97;;;;;;;;;;5011685;28;20059;-69
2021/03/24 02:20:14;;;;;;;14.07;8.00;;;;;;;;;;5011814;28;20057;-69
2021/03/24 02:23:34;;;;;;;12.45;8.07;;;;;;;;;;5011633;28;20401;-69
2021/03/24 02:26:43;;;;;;;16.38;7.93;;;;;;;;;;5011517;28;20049;-69
2021/03/24 02:29:50;;;;;;;16.52;8.07;;;;;;;;;;4999462;28;20501;-69
2021/03/24 02:33:00;;;;;;;15.38;7.80;;;;;;;;;;4988299;28;20375;-69
2021/03/24 02:36:08;;;;;;;15.35;7.18;;;;;;;;;;5011314;28;20426;-69
2021/03/24 02:39:14;;;;;;;15.18;7.57;;;;;;;;;;5011267;28;20038;-69
2021/03/24 02:42:19;;;;;;;10.52;6.70;;;;;;;;;;5011582;28;20037;-69
2021/03/24 02:45:28;;;;;;;13.50;6.90;;;;;;;;;;5010978;28;20045;-69
2021/03/24 02:48:35;;;;;;;11.27;7.30;;;;;;;;;;5011544;28;20034;-69
2021/03/24 02:51:40;;;;;;;12.82;7.03;;;;;;;;;;5011359;28;20034;-69
2021/03/24 02:54:45;;;;;;;17.00;7.70;;;;;;;;;;5011289;28;20044;-69
2021/03/24 02:57:50;;;;;;;13.75;7.68;;;;;;;;;;5011124;28;20048;-69
2021/03/24 03:00:54;;;;;;;11.27;7.00;;;;;;;;;;5011369;28;20044;-69
2021/03/24 03:04:01;;;;;;;11.32;6.72;;;;;;;;;;4999058;28;20053;-69
2021/03/24 03:07:07;;;;;;;11.25;6.82;;;;;;;;;;4999112;28;20038;-69
2021/03/24 03:10:15;;;;;;;12.98;7.20;;;;;;;;;;4999270;28;20428;-69
2021/03/24 03:13:19;;;;;;;10.57;7.22;;;;;;;;;;4999310;28;20034;-69
2021/03/24 03:16:30;;;;;;;13.10;6.95;;;;;;;;;;5011306;28;20037;-69
2021/03/24 03:19:37;;;;;;;11.77;7.22;;;;;;;;;;5011072;28;20042;-69
2021/03/24 03:22:46;;;;;;;12.55;7.03;;;;;;;;;;5011002;28;20049;-69
2021/03/24 03:26:07;;;;;;;14.35;7.13;;;;;;;;;;5010942;28;20415;-69
2021/03/24 03:29:14;;;;;;;11.05;7.00;;;;;;;;;;5010896;28;20034;-69
2021/03/24 03:32:20;;;;;;;14.20;7.15;;;;;;;;;;5011055;28;20378;-69
2021/03/24 03:35:25;;;;;;;15.65;6.95;;;;;;;;;;5010702;28;20513;-69
2021/03/24 03:38:31;;;;;;;11.45;7.03;;;;;;;;;;5011086;28;20041;-69
2021/03/24 03:41:35;;;;;;;13.93;7.53;;;;;;;;;;5010975;28;20045;-69
2021/03/24 03:44:39;;;;;;;11.25;7.00;;;;;;;;;;5010703;28;20046;-69
2021/03/24 03:47:43;;;;;;;17.55;7.15;;;;;;;;;;5010969;28;20034;-69
2021/03/24 03:50:49;;;;;;;16.25;7.30;;;;;;;;;;5010886;28;20042;-69
2021/03/24 03:54:05;;;;;;;19.02;7.63;;;;;;;;;;5010712;28;20493;-69
2021/03/24 03:57:12;;;;;;;16.30;7.85;;;;;;;;;;5011234;28;20044;-69
2021/03/24 04:00:26;;;;;;;13.68;7.30;;;;;;;;;;5014598;28;20047;-69
2021/03/24 04:03:36;;;;;;;14.65;7.30;;;;;;;;;;5014187;28;20049;-69
2021/03/24 04:06:56;;;;;;;14.88;7.10;;;;;;;;;;5014451;28;20516;-69
2021/03/24 04:10:02;;;;;;;16.02;7.70;;;;;;;;;;5014411;28;20045;-69
2021/03/24 04:13:07;;;;;;;17.00;7.22;;;;;;;;;;5014064;28;20034;-69
2021/03/24 04:16:11;;;;;;;16.25;7.53;;;;;;;;;;5014293;28;20038;-69
2021/03/24 04:19:16;;;;;;;16.40;7.63;;;;;;;;;;5014279;28;20610;-69
2021/03/24 04:22:23;;;;;;;18.33;8.07;;;;;;;;;;5014199;28;20527;-69
2021/03/24 04:25:32;;;;;;;18.48;8.63;;;;;;;;;;5014018;28;20046;-69
2021/03/24 04:28:38;;;;;;;15.75;8.38;;;;;;;;;;5013833;28;20033;-69
2021/03/24 04:31:56;;;;;;;17.38;8.30;;;;;;;;;;5013507;28;20047;-69
2021/03/24 04:35:01;;;;;;;19.10;7.57;;;;;;;;;;5013758;28;20053;-69
2021/03/24 04:38:07;;;;;;;15.45;7.85;;;;;;;;;;5013907;28;20041;-69
2021/03/24 04:41:15;;;;;;;14.65;6.97;;;;;;;;;;5013745;28;20105;-69
2021/03/24 04:44:34;;;;;;;12.00;7.15;;;;;;;;;;5013462;28;20049;-69
2021/03/24 04:47:39;;;;;;;15.95;6.70;;;;;;;;;;5013726;28;20038;-69
2021/03/24 04:50:45;;;;;;;16.10;7.70;;;;;;;;;;5013438;28;20038;-69
2021/03/24 04:54:14;;;;;;;21.58;11.30;;;;;;;;;;5013637;28;20034;-69
2021/03/24 04:57:19;;;;;;;28.10;11.32;;;;;;;;;;5001224;28;20037;-69
2021/03/24 05:00:33;;;;;;;29.23;11.95;;;;;;;;;;5013405;28;20068;-69
2021/03/24 05:03:39;;;;;;;29.45;11.00;;;;;;;;;;5013135;28;20419;-69
2021/03/24 05:06:51;;;;;;;23.50;10.63;;;;;;;;;;5013040;28;20041;-69
2021/03/24 05:09:55;;;;;;;19.73;9.23;;;;;;;;;;5012567;28;20073;-69
2021/03/24 05:13:23;;;;;;;17.13;8.00;;;;;;;;;;5013356;28;20037;-69
2021/03/24 05:16:27;;;;;;;18.30;8.38;;;;;;;;;;5012918;28;20500;-69
2021/03/24 05:19:32;;;;;;;22.10;8.93;;;;;;;;;;5001098;28;20042;-69
2021/03/24 05:22:43;;;;;;;18.48;8.68;;;;;;;;;;5012778;28;20037;-69
2021/03/24 05:25:54;;;;;;;16.65;7.45;;;;;;;;;;5012968;28;20219;-69
2021/03/24 05:29:02;;;;;;;23.33;10.98;;;;;;;;;;5013037;28;20038;-69
2021/03/24 05:32:11;;;;;;;16.92;8.20;;;;;;;;;;5012752;28;20045;-68
2021/03/24 05:35:25;;;;;;;20.27;8.75;;;;;;;;;;5012459;28;20050;-68
2021/03/24 05:38:38;;;;;;;22.58;9.27;;;;;;;;;;5012507;28;20048;-69
2021/03/24 05:41:53;;;;;;;19.23;9.18;;;;;;;;;;5012499;28;20034;-69
2021/03/24 05:45:00;;;;;;;17.80;8.93;;;;;;;;;;5012483;28;20524;-69
2021/03/24 05:48:26;;;;;;;19.13;9.57;;;;;;;;;;5012464;28;20061;-69
2021/03/24 05:51:42;;;;;;;19.17;8.50;;;;;;;;;;5012468;28;20721;-69
2021/03/24 05:54:50;;;;;;;24.70;8.35;;;;;;;;;;5012549;28;20056;-69
2021/03/24 05:58:08;;;;;;;13.85;7.47;;;;;;;;;;5012232;28;20049;-69
2021/03/24 06:01:17;;;;;;;16.33;7.60;;;;;;;;;;5012405;28;20041;-69
2021/03/24 06:04:39;;;;;;;17.35;7.97;;;;;;;;;;5012036;28;20414;-69
2021/03/24 06:07:47;;;;;;;19.27;8.65;;;;;;;;;;5012224;28;20042;-68
2021/03/24 06:11:03;;;;;;;22.52;9.02;;;;;;;;;;5012146;28;20038;-69
2021/03/24 06:14:26;;;;;;;17.35;8.57;;;;;;;;;;5012165;28;20146;-69
2021/03/24 06:17:37;;;;;;;18.00;7.53;;;;;;;;;;5011821;28;20397;-68
2021/03/24 06:20:41;;;;;;;25.65;8.15;;;;;;;;;;5011701;28;20044;-69
2021/03/24 06:23:54;;;;;;;16.20;7.82;;;;;;;;;;5011840;28;20059;-69
2021/03/24 06:26:59;;;;;;;18.30;7.20;;;;;;;;;;5011596;28;20056;-69
2021/03/24 06:30:22;;;;;;;18.92;7.20;;;;;;;;;;4999464;28;20046;-69
2021/03/24 06:33:26;;;;;;;24.55;8.35;;;;;;;;;;4999577;28;20402;-69
2021/03/24 06:36:45;;;;;;;22.55;9.95;;;;;;;;;;5011292;28;20059;-68
2021/03/24 06:39:49;;;;;;;30.10;10.48;;;;;;;;;;5011370;28;20046;-68
2021/03/24 06:43:20;;;;;;;16.77;9.23;;;;;;;;;;5011238;28;20053;-69
2021/03/24 06:46:45;;;;;;;25.17;10.20;;;;;;;;;;5004009;28;20038;-68
2021/03/24 06:50:08;;;;;;;27.10;11.13;;;;;;;;;;4999303;28;20040;-68
2021/03/24 06:53:27;;;;;;;47.08;11.27;;;;;;;;;;4999229;28;20052;-68
2021/03/24 06:56:55;;;;;;;48.42;23.08;;;;;;;;;;5011369;28;20045;-69
2021/03/24 07:00:18;;;;;;;20.60;10.18;;;;;;;;;;5011882;28;20061;-68
2021/03/24 07:03:23;;;;;;;26.67;10.52;;;;;;;;;;5011444;28;20045;-66
2021/03/24 07:06:53;;;;;;;24.17;9.65;;;;;;;;;;5011550;28;20080;-67
2021/03/24 07:10:03;;;;;;;23.58;9.30;;;;;;;;;;5011341;28;20383;-67
2021/03/24 07:13:20;;;;;;;21.02;8.13;;;;;;;;;;5011201;28;20041;-68
2021/03/24 07:16:42;;;;;;;20.30;8.07;;;;;;;;;;5010797;28;20045;-67
2021/03/24 07:19:53;;;;;;;15.48;8.43;;;;;;;;;;5010884;28;20038;-67
2021/03/24 07:23:13;;;;;;;20.23;8.05;;;;;;;;;;5011029;28;20060;-70
2021/03/24 07:26:23;;;;;;;24.77;6.85;;;;;;;;;;5010579;28;20030;-73
2021/03/24 07:29:46;;;;;;;15.40;6.75;;;;;;;;;;5011263;28;20441;-72
2021/03/24 07:32:55;;;;;;;15.13;6.63;;;;;;;;;;5012731;28;20049;-68
2021/03/24 07:36:19;;;;;;;16.70;6.30;;;;;;;;;;5014108;28;20041;-68
2021/03/24 07:39:23;;;;;;;1959.50;172.45;;;;;;;;;;5014664;28;20394;-64
2021/03/24 07:42:27;;;;;;;82.00;12.07;;;;;;;;;;5014061;28;20049;-69
2021/03/24 07:45:32;;;;;;;18.23;6.00;;;;;;;;;;5014171;28;20398;-68
2021/03/24 07:48:50;;;;;;;19.65;6.90;;;;;;;;;;5014354;28;20049;-67
2021/03/24 07:51:54;;;;;;;16.00;6.28;;;;;;;;;;5014716;28;20034;-71
2021/03/24 07:55:20;;;;;;;12.48;5.90;;;;;;;;;;5014389;28;20068;-71
2021/03/24 07:58:39;;;;;;;11.73;6.50;;;;;;;;;;5014462;28;20517;-71
2021/03/24 08:01:57;;;;;;;16.23;6.60;;;;;;;;;;5014231;28;20049;-71
2021/03/24 08:05:09;;;;;;;44.22;10.77;;;;;;;;;;5014274;28;20174;-72
2021/03/24 08:08:17;;;;;;;20.65;6.75;;;;;;;;;;5014553;28;20057;-72
2021/03/24 08:11:41;;;;;;;26.33;8.02;;;;;;;;;;5013853;28;20049;-71
2021/03/24 08:15:03;;;;;;;26.10;7.95;;;;;;;;;;5014230;28;20045;-73
2021/03/24 08:18:07;;;;;;;34.17;10.75;;;;;;;;;;5014305;28;20049;-72
2021/03/24 08:21:21;;;;;;;15.88;7.20;;;;;;;;;;5013808;28;20045;-72
2021/03/24 08:24:26;;;;;;;12.15;5.60;;;;;;;;;;5013712;28;20064;-69
2021/03/24 08:27:45;;;;;;;11.20;5.07;;;;;;;;;;5013260;28;20033;-70
2021/03/24 08:30:49;;;;;;;10.45;6.47;;;;;;;;;;5013808;28;20049;-70
2021/03/24 08:34:12;;;;;;;8.75;4.50;;;;;;;;;;5013532;28;20034;-69
2021/03/24 08:37:23;;;;;;;10.27;3.60;;;;;;;;;;5014036;28;20049;-70
2021/03/24 08:40:30;;;;;;;8.52;3.13;;;;;;;;;;5013584;28;20049;-70
2021/03/24 08:43:37;;;;;;;7.00;3.25;;;;;;;;;;5000671;28;20506;-70
2021/03/24 08:46:46;;;;;;;7.35;3.00;;;;;;;;;;5013291;28;20038;-70
2021/03/24 08:49:52;;;;;;;6.85;3.08;;;;;;;;;;5013327;28;20038;-71
2021/03/24 08:53:12;;;;;;;5.50;3.40;;;;;;;;;;5013096;28;20037;-70
2021/03/24 08:56:25;;;;;;;6.32;3.15;;;;;;;;;;5013439;28;20383;-71
2021/03/24 08:59:29;;;;;;;12.18;3.95;;;;;;;;;;5013317;28;20037;-70
2021/03/24 09:02:54;;;;;;;8.77;3.88;;;;;;;;;;5013154;28;20042;-69
2021/03/24 09:06:09;;;;;;;9.35;3.55;;;;;;;;;;5013189;28;20057;-68
2021/03/24 09:09:13;;;;;;;8.15;3.90;;;;;;;;;;5013309;28;20046;-70
2021/03/24 09:12:27;;;;;;;8.27;2.90;;;;;;;;;;5013010;28;20038;-71
2021/03/24 09:15:39;;;;;;;6.95;2.97;;;;;;;;;;5012776;28;20034;-69
2021/03/24 09:18:48;;;;;;;5.63;3.08;;;;;;;;;;5012710;28;20038;-70
2021/03/24 09:22:11;;;;;;;27.48;5.22;;;;;;;;;;5012748;28;20046;-71
2021/03/24 09:25:20;;;;;;;10.95;4.75;;;;;;;;;;5013154;28;20496;-70
2021/03/24 09:28:24;;;;;;;11.55;3.53;;;;;;;;;;5012747;28;20394;-69
2021/03/24 09:31:35;;;;;;;5.60;2.88;;;;;;;;;;5012452;28;20049;-70
2021/03/24 09:34:58;;;;;;;8.20;3.28;;;;;;;;;;5000201;28;20046;-69
2021/03/24 09:38:06;;;;;;;10.98;3.47;;;;;;;;;;5012623;28;20046;-68
2021/03/24 09:41:26;;;;;;;7.95;2.53;;;;;;;;;;5012697;28;20042;-69
2021/03/24 09:44:34;;;;;;;5.78;2.40;;;;;;;;;;5012100;28;20403;-70
2021/03/24 09:47:42;;;;;;;7.60;3.63;;;;;;;;;;4998890;28;20042;-71
2021/03/24 09:51:05;;;;;;;8.73;4.18;;;;;;;;;;5012419;28;20049;-69
2021/03/24 09:54:12;;;;;;;5.50;3.13;;;;;;;;;;5000066;28;20057;-69
2021/03/24 09:57:19;;;;;;;8.13;3.10;;;;;;;;;;5012031;28;20038;-71
2021/03/24 10:00:23;;;;;;;5.68;2.92;;;;;;;;;;5012099;28;20486;-71
2021/03/24 10:03:34;;;;;;;7.82;3.17;;;;;;;;;;5011708;28;20050;-71
2021/03/24 10:06:50;;;;;;;5.30;3.22;;;;;;;;;;5012268;28;20046;-73
2021/03/24 10:10:14;;;;;;;7.45;2.70;;;;;;;;;;5011671;28;20478;-70
2021/03/24 10:13:30;;;;;;;7.97;3.63;;;;;;;;;;5012014;28;20041;-70
2021/03/24 10:16:36;;;;;;;8.40;4.53;;;;;;;;;;5011106;28;20034;-71
2021/03/24 10:19:49;;;;;;;7.72;4.05;;;;;;;;;;4999521;28;20038;-71
2021/03/24 10:23:00;;;;;;;9.25;4.80;;;;;;;;;;5011581;28;20042;-72
2021/03/24 10:26:20;;;;;;;9.73;3.72;;;;;;;;;;5011938;28;20486;-71
2021/03/24 10:29:27;;;;;;;9.13;3.47;;;;;;;;;;5011368;28;20037;-71
2021/03/24 10:32:35;;;;;;;11.40;3.88;;;;;;;;;;4999565;28;20046;-72
2021/03/24 10:35:45;;;;;;;9.18;5.00;;;;;;;;;;5011411;28;20486;-71
2021/03/24 10:38:54;;;;;;;15.50;4.97;;;;;;;;;;5011648;28;20046;-72
2021/03/24 10:42:08;;;;;;;16.90;6.72;;;;;;;;;;5011438;28;20042;-72
2021/03/24 10:45:25;;;;;;;16.05;4.53;;;;;;;;;;5011169;28;20066;-72
2021/03/24 10:48:33;;;;;;;6.82;3.63;;;;;;;;;;5010843;28;20038;-72
2021/03/24 10:51:41;;;;;;;8.25;3.55;;;;;;;;;;5011474;28;20371;-72
2021/03/24 10:54:54;;;;;;;18.67;5.13;;;;;;;;;;5011133;28;20045;-72
2021/03/24 10:58:11;;;;;;;11.13;4.40;;;;;;;;;;5011273;28;20046;-71
2021/03/24 11:01:21;;;;;;;12.95;3.78;;;;;;;;;;5011328;28;20109;-72
2021/03/24 11:04:28;;;;;;;9.80;4.45;;;;;;;;;;4998877;28;20041;-71
2021/03/24 11:07:51;;;;;;;5.30;3.20;;;;;;;;;;5010861;28;20041;-74
2021/03/24 11:10:59;;;;;;;10.50;3.80;;;;;;;;;;5011382;28;20371;-73
2021/03/24 11:14:13;;;;;;;10.15;4.00;;;;;;;;;;5010945;28;20528;-71
2021/03/24 11:17:19;;;;;;;7.75;3.08;;;;;;;;;;5011185;28;20041;-71
2021/03/24 11:20:39;;;;;;;7.68;3.92;;;;;;;;;;5010972;28;20041;-71
2021/03/24 11:23:46;;;;;;;8.50;4.10;;;;;;;;;;5010821;28;20054;-71
2021/03/24 11:26:56;;;;;;;8.60;3.72;;;;;;;;;;5010777;28;20034;-72
2021/03/24 11:30:10;;;;;;;7.32;3.30;;;;;;;;;;5010998;28;20026;-71
2021/03/24 11:33:30;;;;;;;9.85;3.90;;;;;;;;;;5010917;28;20041;-71
2021/03/24 11:36:42;;;;;;;10.00;4.65;;;;;;;;;;5010789;28;20041;-70
2021/03/24 11:39:48;;;;;;;8.05;3.80;;;;;;;;;;5010945;28;20046;-71
2021/03/24 11:42:58;;;;;;;10.57;4.20;;;;;;;;;;4999051;28;20167;-70
2021/03/24 11:46:21;;;;;;;8.23;3.97;;;;;;;;;;4998731;28;20042;-71
2021/03/24 11:49:44;;;;;;;7.25;3.83;;;;;;;;;;5011111;28;20045;-69
2021/03/24 11:52:58;;;;;;;7.47;3.58;;;;;;;;;;5010882;28;20042;-68
2021/03/24 11:56:05;;;;;;;7.82;3.90;;;;;;;;;;5010850;28;20470;-71
2021/03/24 11:59:28;;;;;;;9.60;3.60;;;;;;;;;;5011057;28;20037;-69
2021/03/24 12:02:51;;;;;;;7.78;3.33;;;;;;;;;;5010964;28;20030;-72
2021/03/24 12:06:00;;;;;;;7.60;3.50;;;;;;;;;;5010208;28;20049;-72
2021/03/24 12:09:10;;;;;;;6.95;4.15;;;;;;;;;;5010902;28;20633;-71
2021/03/24 12:12:15;;;;;;;16.58;4.75;;;;;;;;;;5010901;28;20037;-71
2021/03/24 12:15:19;;;;;;;15.75;7.43;;;;;;;;;;5010631;28;20038;-73
2021/03/24 12:18:24;;;;;;;9.88;3.25;;;;;;;;;;5011560;28;20043;-70
2021/03/24 12:21:28;;;;;;;12.15;3.92;;;;;;;;;;5014261;28;20703;-71
2021/03/24 12:24:38;;;;;;;5.63;3.63;;;;;;;;;;5013857;28;20045;-68
2021/03/24 12:27:50;;;;;;;6.97;3.50;;;;;;;;;;5014178;28;20034;-71
2021/03/24 12:31:02;;;;;;;13.48;3.90;;;;;;;;;;5013444;28;20030;-71
2021/03/24 12:34:06;;;;;;;7.43;3.88;;;;;;;;;;5013869;28;20046;-70
2021/03/24 12:37:23;;;;;;;7.78;3.20;;;;;;;;;;5013667;28;20038;-72
2021/03/24 12:40:27;;;;;;;10.20;3.38;;;;;;;;;;5013344;28;20407;-72
2021/03/24 12:43:33;;;;;;;7.32;3.05;;;;;;;;;;5013415;28;20037;-71
2021/03/24 12:46:47;;;;;;;5.88;2.97;;;;;;;;;;5013198;28;20042;-71
2021/03/24 12:50:05;;;;;;;25.40;19.63;;;;;;;;;;5013537;28;20030;-74
2021/03/24 12:53:22;;;;;;;6.85;4.13;;;;;;;;;;5013387;28;20501;-71
2021/03/24 12:56:47;;;;;;;6.93;3.15;;;;;;;;;;5013207;28;20474;-71
2021/03/24 13:00:01;;;;;;;6.80;2.95;;;;;;;;;;5013147;28;20390;-70
2021/03/24 13:03:32;;;;;;;16.98;3.85;;;;;;;;;;5013548;28;20034;-71
2021/03/24 13:06:42;;;;;;;5.30;2.85;;;;;;;;;;5013034;28;20079;-70
2021/03/24 13:09:57;;;;;;;5.85;3.25;;;;;;;;;;5012865;28;20037;-70
2021/03/24 13:13:12;;;;;;;10.98;3.28;;;;;;;;;;5013338;28;20045;-70
2021/03/24 13:16:24;;;;;;;8.35;3.13;;;;;;;;;;4999407;28;20034;-70
2021/03/24 13:19:36;;;;;;;8.60;2.80;;;;;;;;;;5013026;28;20046;-70
2021/03/24 13:22:44;;;;;;;6.70;2.88;;;;;;;;;;5012359;28;20034;-70
2021/03/24 13:25:53;;;;;;;5.45;2.50;;;;;;;;;;5012573;28;20092;-70
2021/03/24 13:29:00;;;;;;;8.45;3.58;;;;;;;;;;5012624;28;20037;-70
2021/03/24 13:32:11;;;;;;;9.52;3.10;;;;;;;;;;5012590;28;20030;-71
2021/03/24 13:35:22;;;;;;;6.57;3.45;;;;;;;;;;5012542;28;20054;-70
2021/03/24 13:38:30;;;;;;;7.93;3.88;;;;;;;;;;5012768;28;20474;-70
2021/03/24 13:41:38;;;;;;;7.55;2.90;;;;;;;;;;5012595;28;20037;-70
2021/03/24 13:44:49;;;;;;;5.95;2.95;;;;;;;;;;5012139;28;20050;-71
2021/03/24 13:48:06;;;;;;;7.60;3.97;;;;;;;;;;5012563;28;20482;-71
2021/03/24 13:51:18;;;;;;;8.48;4.10;;;;;;;;;;5012527;28;20038;-72
2021/03/24 13:54:25;;;;;;;7.47;3.05;;;;;;;;;;5012269;28;20034;-71
2021/03/24 13:57:40;;;;;;;5.30;2.70;;;;;;;;;;5012019;28;20054;-71
2021/03/24 14:00:48;;;;;;;4.53;2.75;;;;;;;;;;5012256;28;20038;-71
2021/03/24 14:03:52;;;;;;;6.30;3.50;;;;;;;;;;5011844;28;20050;-70
2021/03/24 14:07:03;;;;;;;8.07;3.42;;;;;;;;;;5012190;28;20030;-70
2021/03/24 14:10:25;;;;;;;5.60;3.13;;;;;;;;;;5011886;28;20049;-70
2021/03/24 14:13:29;;;;;;;6.78;3.10;;;;;;;;;;5012067;28;20042;-70
2021/03/24 14:16:41;;;;;;;7.55;2.80;;;;;;;;;;5011819;28;20038;-71
2021/03/24 14:19:49;;;;;;;7.47;3.20;;;;;;;;;;5012107;28;20482;-70
2021/03/24 14:23:13;;;;;;;7.38;3.47;;;;;;;;;;5012168;28;20038;-70
2021/03/24 14:26:18;;;;;;;6.90;2.85;;;;;;;;;;5011912;28;20038;-70
2021/03/24 14:29:37;;;;;;;13.13;3.15;;;;;;;;;;5012069;28;20045;-70
2021/03/24 14:32:54;;;;;;;6.10;2.92;;;;;;;;;;5012011;28;20495;-70
2021/03/24 14:36:07;;;;;;;8.25;2.80;;;;;;;;;;5009595;28;20050;-70
2021/03/24 14:39:21;;;;;;;4.93;2.85;;;;;;;;;;4997892;28;20033;-69
2021/03/24 14:42:33;;;;;;;6.43;3.28;;;;;;;;;;5009936;28;20033;-69
2021/03/24 14:45:49;;;;;;;8.32;3.25;;;;;;;;;;5010788;28;20087;-68
2021/03/24 14:49:01;;;;;;;6.22;2.90;;;;;;;;;;5010921;28;20038;-71
2021/03/24 14:52:09;;;;;;;5.40;2.75;;;;;;;;;;5011385;28;20371;-69
2021/03/24 14:55:33;;;;;;;13.90;7.53;;;;;;;;;;5011217;28;20638;-67
2021/03/24 14:58:37;;;;;;;23.45;13.55;;;;;;;;;;5011393;28;20045;-68
2021/03/24 15:01:45;;;;;;;12.98;6.60;;;;;;;;;;5011463;28;20088;-69
2021/03/24 15:04:51;;;;;;;7.38;3.28;;;;;;;;;;5011028;28;20053;-67
2021/03/24 15:08:16;;;;;;;6.78;3.00;;;;;;;;;;5011347;28;20042;-68
2021/03/24 15:11:21;;;;;;;12.63;8.05;;;;;;;;;;5011075;28;20038;-69
2021/03/24 15:14:40;;;;;;;12.20;7.50;;;;;;;;;;5011140;28;20051;-70
2021/03/24 15:17:48;;;;;;;15.65;5.30;;;;;;;;;;5011188;28;20038;-71
2021/03/24 15:21:11;;;;;;;12.57;3.78;;;;;;;;;;5011261;28;20034;-68
2021/03/24 15:24:30;;;;;;;12.40;3.17;;;;;;;;;;5011021;28;20065;-68
2021/03/24 15:27:54;;;;;;;8.55;3.55;;;;;;;;;;4999150;28;20044;-69
2021/03/24 15:31:25;;;;;;;7.28;2.47;;;;;;;;;;5010597;28;20038;-69
2021/03/24 15:34:42;;;;;;;7.95;3.42;;;;;;;;;;5003593;28;20497;-70
2021/03/24 15:37:47;;;;;;;7.80;3.67;;;;;;;;;;5011150;28;20489;-71
2021/03/24 15:41:10;;;;;;;7.82;2.40;;;;;;;;;;5010769;28;20046;-70
2021/03/24 15:44:24;;;;;;;4.63;2.33;;;;;;;;;;5010841;28;20058;-70
2021/03/24 15:47:36;;;;;;;5.68;2.45;;;;;;;;;;5010759;28;20030;-69
2021/03/24 15:50:43;;;;;;;5.07;2.55;;;;;;;;;;5010554;28;20042;-68
2021/03/24 15:53:50;;;;;;;4.50;3.10;;;;;;;;;;5000286;28;20038;-69
2021/03/24 15:56:54;;;;;;;8.65;3.20;;;;;;;;;;5014555;28;20038;-70
2021/03/24 16:00:10;;;;;;;7.20;2.63;;;;;;;;;;5014448;28;20045;-71
2021/03/24 16:03:18;;;;;;;7.15;2.60;;;;;;;;;;5014194;28;20041;-70
2021/03/24 16:06:30;;;;;;;12.20;3.67;;;;;;;;;;5014580;28;20045;-70
2021/03/24 16:09:34;;;;;;;8.77;2.95;;;;;;;;;;5002232;28;20121;-70
2021/03/24 16:12:53;;;;;;;11.80;3.38;;;;;;;;;;5013952;28;20497;-72
2021/03/24 16:16:01;;;;;;;9.38;3.65;;;;;;;;;;5013973;28;20060;-71
2021/03/24 16:19:11;;;;;;;11.38;3.30;;;;;;;;;;5013975;28;20042;-71
2021/03/24 16:22:18;;;;;;;8.95;3.28;;;;;;;;;;5014038;28;20041;-72
2021/03/24 16:25:29;;;;;;;15.15;4.30;;;;;;;;;;5013609;28;20050;-71
2021/03/24 16:28:40;;;;;;;10.02;4.13;;;;;;;;;;5001397;28;20034;-71
2021/03/24 16:31:44;;;;;;;16.67;4.60;;;;;;;;;;5013887;28;20037;-71
2021/03/24 16:35:27;;;;;;;12.35;5.65;;;;;;;;;;5013497;28;20058;-71
2021/03/24 16:38:37;;;;;;;13.05;5.20;;;;;;;;;;4952984;29;20036;-70
2021/03/24 16:42:05;;;;;;;13.20;4.30;;;;;;;;;;4954130;28;20046;-70
2021/03/24 16:45:12;;;;;;;9.85;4.97;;;;;;;;;;5000988;28;20053;-71
2021/03/24 16:48:23;;;;;;;14.93;4.50;;;;;;;;;;5013418;28;20041;-70
2021/03/24 16:51:30;;;;;;;13.60;5.30;;;;;;;;;;5001540;28;20393;-71
2021/03/24 16:54:47;;;;;;;19.23;5.53;;;;;;;;;;5001318;28;20038;-71
2021/03/24 16:58:01;;;;;;;18.48;6.85;;;;;;;;;;5013208;28;20041;-72
2021/03/24 17:01:18;;;;;;;16.02;6.60;;;;;;;;;;5000921;28;20045;-71
2021/03/24 17:04:29;;;;;;;17.45;7.70;;;;;;;;;;5012387;28;20054;-70
2021/03/24 17:07:54;;;;;;;15.95;7.18;;;;;;;;;;5012991;28;20030;-68
2021/03/24 17:11:16;;;;;;;16.08;6.30;;;;;;;;;;4998039;28;20030;-70
2021/03/24 17:14:21;;;;;;;15.88;6.90;;;;;;;;;;5012525;28;20033;-70
2021/03/24 17:17:31;;;;;;;19.60;8.90;;;;;;;;;;5012882;28;20049;-71
2021/03/24 17:20:54;;;;;;;18.45;7.60;;;;;;;;;;5012940;28;20038;-71
2021/03/24 17:24:01;;;;;;;14.00;5.95;;;;;;;;;;5012590;28;20069;-69
2021/03/24 17:27:13;;;;;;;13.80;6.75;;;;;;;;;;5012614;28;20482;-72
2021/03/24 17:30:24;;;;;;;16.98;6.90;;;;;;;;;;5011911;28;20685;-71
2021/03/24 17:33:29;;;;;;;24.05;7.05;;;;;;;;;;5012616;28;20049;-72
2021/03/24 17:36:37;;;;;;;13.60;6.65;;;;;;;;;;5012492;28;20046;-70
2021/03/24 17:40:19;;;;;;;22.27;11.88;;;;;;;;;;5012192;28;20065;-71
2021/03/24 17:43:24;;;;;;;16.50;9.65;;;;;;;;;;4951684;29;20046;-71
2021/03/24 17:46:28;;;;;;;23.13;7.68;;;;;;;;;;4951202;29;20043;-70
2021/03/24 17:49:40;;;;;;;19.77;6.75;;;;;;;;;;5012378;28;20037;-68
2021/03/24 17:52:47;;;;;;;11.27;5.78;;;;;;;;;;5011923;28;20514;-69
2021/03/24 17:56:03;;;;;;;12.95;6.55;;;;;;;;;;5012179;28;20058;-69
2021/03/24 17:59:17;;;;;;;20.10;8.23;;;;;;;;;;5012176;28;20051;-69
2021/03/24 18:02:27;;;;;;;30.17;10.70;;;;;;;;;;5012311;28;20037;-69
2021/03/24 18:05:40;;;;;;;20.55;10.27;;;;;;;;;;5011922;28;20512;-71
2021/03/24 18:08:49;;;;;;;20.65;10.73;;;;;;;;;;5011885;28;20041;-70
2021/03/24 18:11:54;;;;;;;27.92;11.02;;;;;;;;;;5000076;28;20403;-70
2021/03/24 18:15:06;;;;;;;16.25;8.90;;;;;;;;;;5010841;28;20052;-71
2021/03/24 18:18:14;;;;;;;25.77;14.10;;;;;;;;;;4998871;28;20034;-73
2021/03/24 18:21:19;;;;;;;33.90;13.00;;;;;;;;;;5011497;28;20056;-70
2021/03/24 18:24:23;;;;;;;26.23;10.80;;;;;;;;;;5010599;28;20053;-71
2021/03/24 18:27:28;;;;;;;30.73;14.65;;;;;;;;;;4997899;28;20159;-71
2021/03/24 18:30:41;;;;;;;23.90;11.73;;;;;;;;;;5011677;28;20049;-71
2021/03/24 18:33:46;;;;;;;32.85;12.48;;;;;;;;;;5010966;28;20066;-71
2021/03/24 18:36:55;;;;;;;30.05;12.23;;;;;;;;;;5011555;28;20410;-72
2021/03/24 18:40:02;;;;;;;25.75;12.00;;;;;;;;;;5011055;28;20057;-72
2021/03/24 18:43:07;;;;;;;33.85;13.35;;;;;;;;;;5011478;28;20048;-72
2021/03/24 18:46:12;;;;;;;30.40;13.45;;;;;;;;;;4998929;28;20065;-72
2021/03/24 18:49:28;;;;;;;29.55;16.15;;;;;;;;;;5011397;28;20045;-72